Sonora, KY (42776)

11:11 PM EDT on August 28, 2016 (GMT -0400)
Old Sonora Rd | | Change Station

Elev 725 ft 37.54 °N, 85.88 °W | Updated 14 minutes ago

Clear
Clear
72.0 °F
Feels Like 72.0 °F
N
3.2
Wind Variable Wind from NE

Today
High -- | Low -- °F
--% Chance of Precip.
Yesterday
High -- | Low -- °F
Precip. -- in
Pressure 30.16 in
Visibility 10.0 miles
Clouds Clear
Dew Point 70 °F
Humidity 92%
Rainfall 0.22 in
Snow Depth Not available.
7:11 AM 8:17 PM
Waning Crescent, 11% visible
METAR KFTK 290258Z AUTO 07004KT 10SM CLR 24/21 A3017 RMK AO2 SLP212 T02360205 52015
Pressure 30.16 in
Visibility 10.0 miles
Clouds Clear
Dew Point 70 °F
Humidity 92%
Rainfall 0.22 in
Snow Depth Not available.
7:11 AM 8:17 PM
Waning Crescent, 11% visible
METAR KFTK 290258Z AUTO 07004KT 10SM CLR 24/21 A3017 RMK AO2 SLP212 T02360205 52015

10-Day Weather Forecast

Almanac

Astronomy

Aug. 28, 2016 Rise Set
Actual Time
Civil Twilight
Nautical Twilight
Astronomical Twilight
Moon
Length of Visible Light
Length of Day
Tomorrow will be .
, % of the Moon is Illuminated

Today's Extremes

State Highs State Lows

Community

WunderPhotos

Upload Photos

1,935,778 photos uploaded!

WunderBlog® & News

Nearby

Air Quality

  Air Quality AQ Index Pollutant
Not available.

Snow Depth

Station Depth Elevation

Earthquake Activity

City Distance Mag. Time & Date
Minimum magnitude displayed is 2.5.

Coastal Water Temperatures

Place Temperature

Stations

Nearby Weather Stations

Station Location Temp. Windchill Dew Point Humidity Wind Precip. Elev Updated Type
                   

Watches & Warnings

There are currently no watches in effect.